首页
METAR-TAF:

METAR-TAF

机场 :

Naval Air Station Kingsville

Kingsville, 得克萨斯州, 美国

纬度: 27-30-11N, 经度: 097-48-42W, 海拔: 15米

当前天气观测

该预报发布于1小时和8分钟前的14:56 UTC
风速3节,风向多变
温度 32°C
湿度 75%
气压 1014 hPa
能見度: 16.1公里
多云层高于1800英尺

METAR: KNQI 241456Z VRB03KT 10SM BKN018 32/27 A2995 RMK AO2 SLP137 TCU DSNT SE T03170267 51009 $

时间: 11:04 (16:04 UTC)

预报

预报有效从24日的 15点(UTC)到 25日的 15点(UTC)
风速5节,风向多变
能见度10公里或以上
多云层高于2000英尺
附近有阵雨
从 24日的 1600点(UTC)
风速10节,风向东转东南
能见度10公里或以上
散云层高于2500英尺
多云层高于3500英尺, 积雨云.
多云层高于20000英尺
附近有雷暴
短暂存在
从 24日的 16点(UTC)到 24日的 21点(UTC)
风速15节,风向多变,有时为25节阵风
能見度: 4800
少量云层高于1200英尺
多云层高于2000英尺, 积雨云.
多云层高于6500英尺
雷暴, 雨, 轻雾
从 24日的 2100点(UTC)
风速13节,风向东南
能见度10公里或以上
散云层高于4000英尺
多云层高于8000英尺
多云层高于20000英尺
附近有阵雨
从 25日的 0300点(UTC)
风速5节,风向多变
能见度10公里或以上
散云层高于1800英尺
散云层高于20000英尺

TAF: KNQI 2415/2515 VRB05KT 9999 VCSH BKN020 QNH2993INS FM241600 12010KT 9999 VCTS SCT025 BKN035CB BKN200 QNH2985INS TEMPO 2416/2421 VRB15G25KT 4800 TSRA BR FEW012 BKN020CB BKN065 FM242100 13013KT 9999 VCSH SCT040 BKN080 BKN200 QNH2983INS FM250300 VRB05KT 9999 SCT018 SCT200 QNH2987INS TX34/2422Z TN25/2511Z FN20061

超过4000个机场的气象观测和天气预报(METAR&TAF报告)。

可查询的气象台以黄色和红色小点在地图上表示。

将鼠标移到小点上方,可查看气象台名称。

然后点击查看天气观测和预报。

如需切换地图:点击带黑十字的绿色按钮放大地图;点击带横线的绿色按钮缩小地图;或者点击绿色箭头查看邻近地区的地图。


METAR-TAF: